createdAt,value
2022-09-13T00:01:07.942Z,15.50
2022-09-13T00:03:36.540Z,15.68
2022-09-13T00:06:13.034Z,15.86
2022-09-13T00:08:42.880Z,15.85
2022-09-13T00:11:18.355Z,15.86
2022-09-13T00:13:46.624Z,15.88
2022-09-13T00:16:19.875Z,15.90
2022-09-13T00:18:48.731Z,15.81
2022-09-13T00:21:22.358Z,15.86
2022-09-13T00:23:52.047Z,15.74
2022-09-13T00:26:23.329Z,15.75
2022-09-13T00:28:52.637Z,15.70
2022-09-13T00:31:23.361Z,15.64
2022-09-13T00:52:16.169Z,15.17
2022-09-13T00:54:50.327Z,15.16
2022-09-13T00:57:19.833Z,15.20
2022-09-13T00:59:53.921Z,15.25
2022-09-13T01:02:23.085Z,15.27
2022-09-13T01:10:40.387Z,15.29
2022-09-13T01:13:15.193Z,15.23
2022-09-13T01:15:46.366Z,15.11
2022-09-13T01:18:15.277Z,15.04
2022-09-13T01:20:59.208Z,15.06
2022-09-13T01:23:52.075Z,15.13
2022-09-13T01:26:59.307Z,15.13
2022-09-13T01:30:00.540Z,15.04
2022-09-13T01:32:41.353Z,14.95
2022-09-13T01:35:18.559Z,14.44
2022-09-13T01:37:55.273Z,13.80
2022-09-13T01:40:41.995Z,13.61
2022-09-13T01:43:27.092Z,13.91
2022-09-13T01:46:03.979Z,14.13
2022-09-13T02:12:08.113Z,14.18
2022-09-13T02:14:39.803Z,13.65
2022-09-13T02:17:11.516Z,13.51
2022-09-13T02:19:44.376Z,13.77
2022-09-13T02:22:17.299Z,14.07
2022-09-13T02:24:49.301Z,14.17
2022-09-13T02:30:16.302Z,13.81
2022-09-13T02:32:49.555Z,13.60
2022-09-13T02:35:21.161Z,13.77
2022-09-13T02:37:56.389Z,13.94
2022-09-13T02:40:29.009Z,14.23
2022-09-13T02:43:02.669Z,14.17
2022-09-13T03:00:12.861Z,14.75
2022-09-13T03:02:44.749Z,14.87
2022-09-13T03:05:13.084Z,14.95
2022-09-13T03:07:41.016Z,15.03
2022-09-13T03:10:12.650Z,15.04
2022-09-13T03:12:56.557Z,14.94
2022-09-13T03:15:35.263Z,15.06
2022-09-13T03:18:12.425Z,15.13
2022-09-13T03:20:47.818Z,15.21
2022-09-13T03:23:36.500Z,15.08
2022-09-13T03:26:25.043Z,15.18
2022-09-13T03:29:03.984Z,15.15
2022-09-13T03:31:38.214Z,15.18
2022-09-13T03:34:12.288Z,15.23
2022-09-13T03:36:46.796Z,15.27
2022-09-13T03:39:21.921Z,15.38
2022-09-13T03:41:55.700Z,15.46
2022-09-13T03:44:27.602Z,15.56
2022-09-13T03:47:02.669Z,15.60
2022-09-13T03:49:32.728Z,15.61
2022-09-13T03:52:01.191Z,15.61
2022-09-13T03:54:32.279Z,15.60
2022-09-13T03:57:11.713Z,15.58
2022-09-13T03:59:42.851Z,15.55
2022-09-13T04:02:12.875Z,15.48
2022-09-13T04:04:42.620Z,15.52
2022-09-13T04:07:12.735Z,15.60
2022-09-13T04:09:40.651Z,15.67
2022-09-13T04:12:10.117Z,15.69
2022-09-13T04:14:38.334Z,15.72
2022-09-13T04:17:06.884Z,15.77
2022-09-13T04:19:36.263Z,15.80
2022-09-13T04:22:04.354Z,15.80
2022-09-13T04:24:32.668Z,15.76
2022-09-13T04:27:01.133Z,15.78
2022-09-13T04:29:28.892Z,15.80
2022-09-13T04:31:57.024Z,15.91
2022-09-13T04:34:24.912Z,15.88
2022-09-13T04:36:54.750Z,15.87
2022-09-13T04:39:23.921Z,15.83
2022-09-13T04:41:54.867Z,15.84
2022-09-13T04:44:24.339Z,15.88
2022-09-13T04:46:53.700Z,15.91
2022-09-13T04:49:22.083Z,15.95
2022-09-13T04:51:50.259Z,15.97
2022-09-13T04:54:19.598Z,15.98
2022-09-13T04:56:49.163Z,15.98
2022-09-13T04:59:19.981Z,15.88
2022-09-13T05:01:48.135Z,15.71
2022-09-13T05:04:16.938Z,15.41
2022-09-13T05:06:44.767Z,15.47
2022-09-13T05:09:15.424Z,15.21
2022-09-13T05:11:44.782Z,15.25
2022-09-13T05:14:13.340Z,15.47
2022-09-13T05:16:41.472Z,15.84
2022-09-13T05:19:12.056Z,16.15
2022-09-13T05:21:40.117Z,16.32
2022-09-13T05:24:08.181Z,16.44
2022-09-13T05:26:36.634Z,16.55
2022-09-13T05:29:06.669Z,16.61
2022-09-13T05:31:36.612Z,16.79
2022-09-13T05:34:07.495Z,16.75
2022-09-13T05:36:35.456Z,16.67
2022-09-13T05:41:51.682Z,16.87
2022-09-13T05:44:21.118Z,16.84
2022-09-13T05:46:49.269Z,17.01
2022-09-13T05:49:17.342Z,17.21
2022-09-13T05:51:45.378Z,17.43
2022-09-13T05:54:14.054Z,17.64
2022-09-13T05:56:42.101Z,17.80
2022-09-13T05:59:13.681Z,17.88
2022-09-13T06:01:43.125Z,17.88
2022-09-13T06:04:12.676Z,17.90
2022-09-13T06:06:40.834Z,18.00
2022-09-13T06:09:09.357Z,18.03
2022-09-13T06:11:37.380Z,18.12
2022-09-13T06:14:05.169Z,18.17
2022-09-13T06:16:33.246Z,18.28
2022-09-13T06:19:02.710Z,18.31
2022-09-13T06:21:30.629Z,18.44
2022-09-13T06:23:58.626Z,18.55
2022-09-13T06:26:28.312Z,18.71
2022-09-13T06:28:58.862Z,18.80
2022-09-13T06:31:28.780Z,18.82
2022-09-13T06:33:58.728Z,18.88
2022-09-13T06:36:28.711Z,18.95
2022-09-13T06:38:57.092Z,18.99
2022-09-13T06:41:27.193Z,19.18
2022-09-13T06:43:57.639Z,19.33
2022-09-13T06:46:26.874Z,19.38
2022-09-13T06:48:55.629Z,19.38
2022-09-13T06:51:25.138Z,19.25
2022-09-13T06:53:56.804Z,19.26
2022-09-13T06:56:26.582Z,19.40
2022-09-13T06:58:57.993Z,19.56
2022-09-13T07:01:28.321Z,19.01
2022-09-13T07:04:00.043Z,18.04
2022-09-13T07:06:29.412Z,17.72
2022-09-13T07:09:00.461Z,17.90
2022-09-13T07:11:31.351Z,18.09
2022-09-13T07:14:01.090Z,18.55
2022-09-13T07:16:31.197Z,19.28
2022-09-13T07:19:00.737Z,19.93
2022-09-13T07:21:30.046Z,20.21
2022-09-13T07:23:59.870Z,19.82
2022-09-13T07:26:28.831Z,19.19
2022-09-13T07:29:00.234Z,19.36
2022-09-13T07:31:30.307Z,19.53
2022-09-13T07:34:00.432Z,19.70
2022-09-13T07:36:30.420Z,19.84
2022-09-13T07:39:00.630Z,19.49
2022-09-13T07:41:30.295Z,19.24
2022-09-13T07:43:58.997Z,19.24
2022-09-13T07:46:28.770Z,19.15
2022-09-13T07:48:58.244Z,19.15
2022-09-13T07:51:27.794Z,19.23
2022-09-13T07:53:57.863Z,19.36
2022-09-13T07:56:28.615Z,19.42
2022-09-13T07:58:57.464Z,19.76
2022-09-13T08:01:27.446Z,19.88
2022-09-13T08:03:56.792Z,19.77
2022-09-13T08:06:25.850Z,19.49
2022-09-13T08:08:54.079Z,19.76
2022-09-13T08:11:24.427Z,20.11
2022-09-13T08:13:54.641Z,20.70
2022-09-13T08:16:24.579Z,21.27
2022-09-13T08:18:54.635Z,21.27
2022-09-13T08:21:23.675Z,21.36
2022-09-13T08:23:55.547Z,21.84
2022-09-13T08:26:23.819Z,22.57
2022-09-13T08:28:57.587Z,23.03
2022-09-13T08:31:25.670Z,23.39
2022-09-13T08:33:54.550Z,24.04
2022-09-13T08:36:24.168Z,24.66
2022-09-13T08:38:54.116Z,24.97
2022-09-13T08:41:48.344Z,24.17
2022-09-13T08:44:26.594Z,24.15
2022-09-13T08:46:58.480Z,23.92
2022-09-13T08:49:31.388Z,21.86
2022-09-13T08:52:03.225Z,21.60
2022-09-13T08:54:31.082Z,22.33
2022-09-13T08:57:05.096Z,21.65
2022-09-13T08:59:47.723Z,20.20
2022-09-13T09:02:29.703Z,20.70
2022-09-13T09:05:05.351Z,19.94
2022-09-13T09:07:38.324Z,19.59
2022-09-13T09:10:09.127Z,19.69
2022-09-13T09:12:40.601Z,19.70
2022-09-13T09:15:17.571Z,19.63
2022-09-13T09:17:55.398Z,19.61
2022-09-13T09:20:28.886Z,19.79
2022-09-13T09:22:56.857Z,20.10
2022-09-13T09:25:26.767Z,19.99
2022-09-13T09:27:54.968Z,19.82
2022-09-13T09:30:24.262Z,19.10
2022-09-13T09:33:08.506Z,18.91
2022-09-13T09:35:47.637Z,19.24
2022-09-13T09:38:32.591Z,19.65
2022-09-13T09:41:03.974Z,20.10
2022-09-13T09:43:37.714Z,20.55
2022-09-13T09:46:10.428Z,20.77
2022-09-13T09:48:45.792Z,21.08
2022-09-13T09:51:16.249Z,20.75
2022-09-13T09:53:48.265Z,20.17
2022-09-13T09:56:24.540Z,20.11
2022-09-13T09:58:54.354Z,19.84
2022-09-13T10:01:26.666Z,19.82
2022-09-13T10:04:06.080Z,19.85
2022-09-13T10:06:34.426Z,19.76
2022-09-13T10:09:06.115Z,19.90
2022-09-13T10:11:46.013Z,20.07
2022-09-13T10:14:38.228Z,19.93
2022-09-13T10:17:17.216Z,20.09
2022-09-13T10:19:59.361Z,19.83
2022-09-13T10:22:28.292Z,19.59
2022-09-13T10:24:56.971Z,19.44
2022-09-13T10:27:31.127Z,19.29
2022-09-13T10:30:01.794Z,18.48
2022-09-13T10:32:32.261Z,19.10
2022-09-13T10:35:08.914Z,19.59
2022-09-13T10:37:37.744Z,19.69
2022-09-13T10:40:09.556Z,19.88
2022-09-13T10:42:37.694Z,19.43
2022-09-13T10:45:07.756Z,19.39
2022-09-13T10:47:40.563Z,20.02
2022-09-13T10:50:23.512Z,20.14
2022-09-13T10:52:52.762Z,19.70
2022-09-13T10:55:39.078Z,18.63
2022-09-13T10:58:23.856Z,18.35
2022-09-13T11:01:40.148Z,19.03
2022-09-13T11:04:45.939Z,20.71
2022-09-13T11:07:37.919Z,20.77
2022-09-13T11:10:16.240Z,21.55
2022-09-13T11:12:51.308Z,20.48
2022-09-13T11:15:30.435Z,20.59
2022-09-13T11:18:30.845Z,20.33
2022-09-13T11:21:08.781Z,22.00
2022-09-13T11:24:19.171Z,21.67
2022-09-13T11:26:56.467Z,22.64
2022-09-13T11:29:48.031Z,21.69
2022-09-13T11:32:32.560Z,20.72
2022-09-13T11:35:17.471Z,21.15
2022-09-13T11:37:55.987Z,21.75
2022-09-13T11:40:40.672Z,22.62
2022-09-13T11:43:28.137Z,23.74
2022-09-13T11:46:04.596Z,24.49
2022-09-13T11:48:49.207Z,23.88
2022-09-13T11:51:26.509Z,23.51
2022-09-13T11:54:08.792Z,23.75
2022-09-13T11:56:41.825Z,23.78
2022-09-13T11:59:19.798Z,23.59
2022-09-13T12:01:53.182Z,23.08
2022-09-13T12:04:28.525Z,23.43
2022-09-13T12:07:02.154Z,24.08
2022-09-13T12:09:36.312Z,24.28
2022-09-13T12:12:08.377Z,22.82
2022-09-13T12:14:47.214Z,23.35
2022-09-13T12:17:27.445Z,24.47
2022-09-13T12:19:59.198Z,25.47
2022-09-13T12:22:31.376Z,26.68
2022-09-13T12:25:03.587Z,27.30
2022-09-13T12:27:40.605Z,27.37
2022-09-13T12:30:16.047Z,27.38
2022-09-13T12:32:45.054Z,26.90
2022-09-13T12:35:22.117Z,26.53
2022-09-13T12:38:17.124Z,26.01
2022-09-13T12:40:59.161Z,24.52
2022-09-13T12:43:51.820Z,23.79
2022-09-13T12:46:37.944Z,23.74
2022-09-13T12:49:25.826Z,24.56
2022-09-13T12:52:07.892Z,25.56
2022-09-13T12:54:50.069Z,26.39
2022-09-13T12:57:31.857Z,26.50
2022-09-13T13:00:19.458Z,26.92
2022-09-13T13:03:00.464Z,27.31
2022-09-13T13:05:31.951Z,26.95
2022-09-13T13:08:02.460Z,25.76
2022-09-13T13:10:33.441Z,26.22
2022-09-13T13:13:12.906Z,26.27
2022-09-13T13:16:26.496Z,27.19
2022-09-13T13:18:56.394Z,27.70
2022-09-13T13:21:37.152Z,28.08
2022-09-13T13:24:39.848Z,27.89
2022-09-13T13:27:37.458Z,27.13
2022-09-13T13:30:42.815Z,26.17
2022-09-13T13:33:21.706Z,26.46
2022-09-13T13:35:50.342Z,26.70
2022-09-13T13:38:38.628Z,27.07
2022-09-13T13:41:12.825Z,25.79
2022-09-13T13:43:41.397Z,25.20
2022-09-13T13:46:26.717Z,25.77
2022-09-13T13:48:56.950Z,26.56
2022-09-13T13:51:27.535Z,27.11
2022-09-13T13:54:03.492Z,27.60
2022-09-13T13:56:47.948Z,27.95
2022-09-13T13:59:27.282Z,28.30
2022-09-13T14:02:02.008Z,28.20
2022-09-13T14:05:08.886Z,27.79
2022-09-13T14:10:45.152Z,28.33
2022-09-13T14:13:36.375Z,28.07
2022-09-13T14:16:11.339Z,28.04
2022-09-13T14:18:53.709Z,27.73
2022-09-13T14:21:26.674Z,27.52
2022-09-13T14:24:18.021Z,27.69
2022-09-13T14:26:46.975Z,27.84
2022-09-13T14:29:19.498Z,27.90
2022-09-13T14:31:48.848Z,26.66
2022-09-13T14:34:25.672Z,25.13
2022-09-13T14:36:58.175Z,24.77
2022-09-13T14:39:27.649Z,24.93
2022-09-13T14:42:03.169Z,25.17
2022-09-13T14:44:31.637Z,25.57
2022-09-13T14:47:07.993Z,25.98
2022-09-13T14:49:41.202Z,25.96
2022-09-13T14:52:18.681Z,25.76
2022-09-13T14:54:52.829Z,25.60
2022-09-13T14:57:28.751Z,25.56
2022-09-13T14:59:59.866Z,24.99
2022-09-13T15:02:33.357Z,24.71
2022-09-13T15:05:02.346Z,24.09
2022-09-13T15:08:13.815Z,24.22
2022-09-13T15:10:45.839Z,23.97
2022-09-13T15:13:13.646Z,24.30
2022-09-13T15:15:43.096Z,23.28
2022-09-13T15:18:26.078Z,22.75
2022-09-13T15:20:56.141Z,23.07
2022-09-13T15:23:28.130Z,22.71
2022-09-13T15:26:02.556Z,22.91
2022-09-13T15:28:33.910Z,23.14
2022-09-13T15:31:02.882Z,22.72
2022-09-13T15:33:32.763Z,22.89
2022-09-13T15:36:29.960Z,22.72
2022-09-13T15:39:03.238Z,23.20
2022-09-13T15:41:34.060Z,23.59
2022-09-13T15:44:03.547Z,23.75
2022-09-13T15:46:32.634Z,23.94
2022-09-13T15:49:05.320Z,23.87
2022-09-13T15:51:39.006Z,23.73
2022-09-13T15:54:13.957Z,23.42
2022-09-13T15:56:46.718Z,23.57
2022-09-13T15:59:15.558Z,23.55
2022-09-13T16:01:43.898Z,23.70
2022-09-13T16:04:11.834Z,23.87
2022-09-13T16:06:40.446Z,23.95
2022-09-13T16:09:17.138Z,23.97
2022-09-13T16:11:46.989Z,24.05
2022-09-13T16:14:15.050Z,24.02
2022-09-13T16:16:43.046Z,23.94
2022-09-13T16:19:16.093Z,23.90
2022-09-13T16:21:44.120Z,23.93
2022-09-13T16:24:12.118Z,23.91
2022-09-13T16:26:41.348Z,23.85
2022-09-13T16:29:11.551Z,23.87
2022-09-13T16:31:39.389Z,23.92
2022-09-13T16:34:07.363Z,23.99
2022-09-13T16:36:35.268Z,23.98
2022-09-13T16:39:03.374Z,23.67
2022-09-13T16:41:31.650Z,23.56
2022-09-13T16:44:00.018Z,23.59
2022-09-13T16:46:30.836Z,23.62
2022-09-13T16:48:59.258Z,23.66
2022-09-13T16:51:28.037Z,23.78
2022-09-13T16:53:56.216Z,23.78
2022-09-13T16:56:25.720Z,23.67
2022-09-13T16:58:54.705Z,23.58
2022-09-13T17:01:24.729Z,22.66
2022-09-13T17:03:55.198Z,21.94
2022-09-13T17:06:24.871Z,21.75
2022-09-13T17:08:55.457Z,21.46
2022-09-13T17:11:26.726Z,21.29
2022-09-13T17:13:55.126Z,21.21
2022-09-13T17:16:27.398Z,20.93
2022-09-13T17:18:58.314Z,20.53
2022-09-13T17:21:26.905Z,20.51
2022-09-13T17:23:55.671Z,20.49
2022-09-13T17:26:24.122Z,20.28
2022-09-13T17:28:53.381Z,20.07
2022-09-13T17:31:21.975Z,20.06
2022-09-13T17:33:50.382Z,20.19
2022-09-13T17:36:21.019Z,20.37
2022-09-13T17:38:49.366Z,20.41
2022-09-13T17:41:19.232Z,20.37
2022-09-13T17:43:48.027Z,20.25
2022-09-13T17:46:17.848Z,20.49
2022-09-13T17:48:46.954Z,20.60
2022-09-13T17:51:17.545Z,20.81
2022-09-13T17:53:49.674Z,21.03
2022-09-13T17:56:19.699Z,21.28
2022-09-13T17:58:48.146Z,21.60
2022-09-13T18:01:18.107Z,21.68
2022-09-13T18:03:46.491Z,21.84
2022-09-13T18:06:15.176Z,21.74
2022-09-13T18:08:43.519Z,21.66
2022-09-13T18:11:19.456Z,21.64
2022-09-13T18:13:50.040Z,21.53
2022-09-13T18:16:21.421Z,21.46
2022-09-13T18:18:51.551Z,21.11
2022-09-13T18:21:24.394Z,20.98
2022-09-13T18:23:54.882Z,21.02
2022-09-13T18:26:25.886Z,20.99
2022-09-13T18:28:56.016Z,20.96
2022-09-13T18:31:25.139Z,21.01
2022-09-13T18:33:56.854Z,20.94
2022-09-13T18:36:26.036Z,21.05
2022-09-13T18:38:55.589Z,21.05
2022-09-13T18:41:30.792Z,21.11
2022-09-13T18:43:59.880Z,21.11
2022-09-13T18:46:31.844Z,21.25
2022-09-13T18:49:03.655Z,21.40
2022-09-13T18:51:35.078Z,21.40
2022-09-13T18:54:04.609Z,21.39
2022-09-13T18:56:38.063Z,21.29
2022-09-13T18:59:07.702Z,21.18
2022-09-13T19:01:38.475Z,21.29
2022-09-13T19:04:08.646Z,21.43
2022-09-13T19:06:39.206Z,21.52
2022-09-13T19:09:08.745Z,21.57
2022-09-13T19:11:49.113Z,21.55
2022-09-13T19:14:19.270Z,21.68
2022-09-13T19:16:47.246Z,21.63
2022-09-13T19:19:15.859Z,21.69
2022-09-13T19:21:44.925Z,21.53
2022-09-13T19:24:18.424Z,21.29
2022-09-13T19:26:52.073Z,21.13
2022-09-13T19:29:22.090Z,21.04
2022-09-13T19:31:52.686Z,21.05
2022-09-13T19:34:22.836Z,21.04
2022-09-13T19:36:57.635Z,21.11
2022-09-13T19:39:30.082Z,21.17
2022-09-13T19:42:01.457Z,21.35
2022-09-13T19:44:29.989Z,21.46
2022-09-13T19:49:50.242Z,21.52
2022-09-13T19:52:18.679Z,21.43
2022-09-13T19:54:46.560Z,20.58
2022-09-13T19:57:16.484Z,20.63
2022-09-13T19:59:45.200Z,20.87
2022-09-13T20:02:15.043Z,21.09
2022-09-13T20:04:43.592Z,21.25
2022-09-13T20:07:13.534Z,21.31
2022-09-13T20:09:42.478Z,21.41
2022-09-13T20:12:12.780Z,21.44
2022-09-13T20:14:43.133Z,21.34
2022-09-13T20:17:11.574Z,21.23
2022-09-13T20:19:42.831Z,21.26
2022-09-13T20:22:15.601Z,21.31
2022-09-13T20:24:47.122Z,21.22
2022-09-13T20:27:15.941Z,21.25
2022-09-13T20:29:51.746Z,21.37
2022-09-13T20:32:20.833Z,21.43
2022-09-13T20:34:50.105Z,21.50
2022-09-13T20:37:18.667Z,21.62
2022-09-13T20:39:49.118Z,21.33
2022-09-13T20:42:17.811Z,21.08
2022-09-13T20:44:46.548Z,20.99
2022-09-13T20:47:18.267Z,21.00
2022-09-13T20:49:46.861Z,21.21
2022-09-13T20:52:14.871Z,21.09
2022-09-13T20:54:43.309Z,20.82
2022-09-13T20:57:14.461Z,20.71
2022-09-13T20:59:43.556Z,20.81
2022-09-13T21:16:45.887Z,20.65
2022-09-13T21:28:16.045Z,20.67
2022-09-13T21:30:44.068Z,20.38
2022-09-13T21:33:13.737Z,20.42
2022-09-13T21:35:41.795Z,20.52
2022-09-13T21:38:11.330Z,20.66
2022-09-13T21:40:39.294Z,20.53
2022-09-13T21:43:07.257Z,20.55
2022-09-13T21:45:35.056Z,20.74
2022-09-13T21:48:03.340Z,20.84
2022-09-13T21:50:33.158Z,20.87
2022-09-13T21:53:01.399Z,20.87
2022-09-13T21:55:31.321Z,20.80
2022-09-13T21:57:59.487Z,20.67
2022-09-13T22:00:27.422Z,20.55
2022-09-13T22:02:55.776Z,20.51
2022-09-13T22:05:23.670Z,20.42
2022-09-13T22:07:53.868Z,20.43
2022-09-13T22:10:21.854Z,20.34
2022-09-13T22:12:49.909Z,20.17
2022-09-13T22:15:18.543Z,19.87
2022-09-13T22:17:46.342Z,19.72
2022-09-13T22:20:15.135Z,19.75
